sensor_id;sensor_type;location;lat;lon;timestamp;P1;durP1;ratioP1;P2;durP2;ratioP2
4051;SDS011;2040;50.924;11.604;2023-02-13T00:01:30;4.93;;;2.80;;
4051;SDS011;2040;50.924;11.604;2023-02-13T00:03:56;4.23;;;2.50;;
4051;SDS011;2040;50.924;11.604;2023-02-13T00:06:21;7.37;;;2.57;;
4051;SDS011;2040;50.924;11.604;2023-02-13T00:08:47;3.23;;;2.37;;
4051;SDS011;2040;50.924;11.604;2023-02-13T00:11:13;4.70;;;2.73;;
4051;SDS011;2040;50.924;11.604;2023-02-13T00:13:39;5.63;;;3.50;;
4051;SDS011;2040;50.924;11.604;2023-02-13T00:16:05;5.60;;;3.03;;
4051;SDS011;2040;50.924;11.604;2023-02-13T00:18:35;6.80;;;3.13;;
4051;SDS011;2040;50.924;11.604;2023-02-13T00:21:05;4.73;;;3.03;;
4051;SDS011;2040;50.924;11.604;2023-02-13T00:23:34;4.93;;;2.47;;
4051;SDS011;2040;50.924;11.604;2023-02-13T00:26:00;4.13;;;2.80;;
4051;SDS011;2040;50.924;11.604;2023-02-13T00:28:33;4.60;;;2.27;;
4051;SDS011;2040;50.924;11.604;2023-02-13T00:31:07;4.27;;;2.60;;
4051;SDS011;2040;50.924;11.604;2023-02-13T00:33:35;4.33;;;2.33;;
4051;SDS011;2040;50.924;11.604;2023-02-13T00:38:32;4.97;;;3.50;;
4051;SDS011;2040;50.924;11.604;2023-02-13T00:40:58;4.93;;;3.30;;
4051;SDS011;2040;50.924;11.604;2023-02-13T00:43:24;5.47;;;3.50;;
4051;SDS011;2040;50.924;11.604;2023-02-13T00:45:50;5.53;;;3.00;;
4051;SDS011;2040;50.924;11.604;2023-02-13T00:48:15;5.00;;;2.73;;
4051;SDS011;2040;50.924;11.604;2023-02-13T00:50:41;5.60;;;2.77;;
4051;SDS011;2040;50.924;11.604;2023-02-13T00:53:06;4.97;;;3.50;;
4051;SDS011;2040;50.924;11.604;2023-02-13T00:55:32;5.80;;;2.90;;
4051;SDS011;2040;50.924;11.604;2023-02-13T00:57:59;4.00;;;2.40;;
4051;SDS011;2040;50.924;11.604;2023-02-13T01:00:24;3.57;;;2.60;;
4051;SDS011;2040;50.924;11.604;2023-02-13T01:02:50;4.40;;;2.80;;
4051;SDS011;2040;50.924;11.604;2023-02-13T01:05:16;7.93;;;3.50;;
4051;SDS011;2040;50.924;11.604;2023-02-13T01:07:41;6.07;;;3.77;;
4051;SDS011;2040;50.924;11.604;2023-02-13T01:10:07;6.00;;;3.50;;
4051;SDS011;2040;50.924;11.604;2023-02-13T01:12:33;4.43;;;3.10;;
4051;SDS011;2040;50.924;11.604;2023-02-13T01:14:58;8.40;;;3.50;;
4051;SDS011;2040;50.924;11.604;2023-02-13T01:17:24;5.27;;;2.90;;
4051;SDS011;2040;50.924;11.604;2023-02-13T01:19:49;7.00;;;3.60;;
4051;SDS011;2040;50.924;11.604;2023-02-13T01:22:15;7.00;;;3.90;;
4051;SDS011;2040;50.924;11.604;2023-02-13T01:24:40;6.27;;;3.40;;
4051;SDS011;2040;50.924;11.604;2023-02-13T01:27:06;7.43;;;3.47;;
4051;SDS011;2040;50.924;11.604;2023-02-13T01:29:32;4.33;;;3.13;;
4051;SDS011;2040;50.924;11.604;2023-02-13T01:31:57;5.93;;;3.53;;
4051;SDS011;2040;50.924;11.604;2023-02-13T01:34:23;8.83;;;4.50;;
4051;SDS011;2040;50.924;11.604;2023-02-13T01:36:48;7.20;;;3.43;;
4051;SDS011;2040;50.924;11.604;2023-02-13T01:39:14;5.37;;;3.50;;
4051;SDS011;2040;50.924;11.604;2023-02-13T01:41:39;6.97;;;3.70;;
4051;SDS011;2040;50.924;11.604;2023-02-13T01:47:10;7.10;;;3.80;;
4051;SDS011;2040;50.924;11.604;2023-02-13T01:49:37;6.43;;;3.33;;
4051;SDS011;2040;50.924;11.604;2023-02-13T01:52:07;6.90;;;3.83;;
4051;SDS011;2040;50.924;11.604;2023-02-13T01:54:35;10.00;;;5.57;;
4051;SDS011;2040;50.924;11.604;2023-02-13T01:57:02;6.27;;;3.70;;
4051;SDS011;2040;50.924;11.604;2023-02-13T01:59:41;5.57;;;3.40;;
4051;SDS011;2040;50.924;11.604;2023-02-13T02:02:14;7.90;;;3.50;;
4051;SDS011;2040;50.924;11.604;2023-02-13T02:04:41;6.13;;;3.37;;
4051;SDS011;2040;50.924;11.604;2023-02-13T02:07:10;9.57;;;3.93;;
4051;SDS011;2040;50.924;11.604;2023-02-13T02:09:48;8.30;;;3.90;;
4051;SDS011;2040;50.924;11.604;2023-02-13T02:14:54;7.00;;;4.00;;
4051;SDS011;2040;50.924;11.604;2023-02-13T02:17:23;13.53;;;4.43;;
4051;SDS011;2040;50.924;11.604;2023-02-13T02:19:54;6.83;;;3.23;;
4051;SDS011;2040;50.924;11.604;2023-02-13T02:33:59;6.60;;;3.87;;
4051;SDS011;2040;50.924;11.604;2023-02-13T02:37:08;6.97;;;3.90;;
4051;SDS011;2040;50.924;11.604;2023-02-13T02:40:00;8.47;;;4.93;;
4051;SDS011;2040;50.924;11.604;2023-02-13T02:47:51;9.00;;;4.73;;
4051;SDS011;2040;50.924;11.604;2023-02-13T02:51:18;7.23;;;4.57;;
4051;SDS011;2040;50.924;11.604;2023-02-13T02:53:59;6.63;;;4.80;;
4051;SDS011;2040;50.924;11.604;2023-02-13T02:56:50;8.40;;;4.43;;
4051;SDS011;2040;50.924;11.604;2023-02-13T02:59:18;8.73;;;4.90;;
4051;SDS011;2040;50.924;11.604;2023-02-13T03:02:04;7.17;;;4.87;;
4051;SDS011;2040;50.924;11.604;2023-02-13T03:04:52;12.50;;;5.20;;
4051;SDS011;2040;50.924;11.604;2023-02-13T03:07:38;9.23;;;5.10;;
4051;SDS011;2040;50.924;11.604;2023-02-13T03:10:08;7.67;;;4.97;;
4051;SDS011;2040;50.924;11.604;2023-02-13T03:12:57;7.73;;;4.53;;
4051;SDS011;2040;50.924;11.604;2023-02-13T03:15:42;8.67;;;4.70;;
4051;SDS011;2040;50.924;11.604;2023-02-13T03:18:29;6.73;;;4.60;;
4051;SDS011;2040;50.924;11.604;2023-02-13T03:21:16;6.57;;;4.27;;
4051;SDS011;2040;50.924;11.604;2023-02-13T03:24:16;7.60;;;4.50;;
4051;SDS011;2040;50.924;11.604;2023-02-13T03:26:57;10.43;;;5.13;;
4051;SDS011;2040;50.924;11.604;2023-02-13T03:35:26;7.80;;;4.77;;
4051;SDS011;2040;50.924;11.604;2023-02-13T03:41:21;6.70;;;4.73;;
4051;SDS011;2040;50.924;11.604;2023-02-13T03:44:00;11.30;;;5.83;;
4051;SDS011;2040;50.924;11.604;2023-02-13T03:46:41;12.77;;;4.70;;
4051;SDS011;2040;50.924;11.604;2023-02-13T03:49:12;8.47;;;5.20;;
4051;SDS011;2040;50.924;11.604;2023-02-13T03:52:07;9.33;;;4.97;;
4051;SDS011;2040;50.924;11.604;2023-02-13T03:57:57;7.67;;;4.97;;
4051;SDS011;2040;50.924;11.604;2023-02-13T04:00:47;8.50;;;5.23;;
4051;SDS011;2040;50.924;11.604;2023-02-13T04:03:21;8.10;;;4.67;;
4051;SDS011;2040;50.924;11.604;2023-02-13T04:05:48;7.97;;;4.80;;
4051;SDS011;2040;50.924;11.604;2023-02-13T04:08:18;9.60;;;5.50;;
4051;SDS011;2040;50.924;11.604;2023-02-13T04:10:51;5.10;;;3.90;;
4051;SDS011;2040;50.924;11.604;2023-02-13T04:14:07;8.63;;;4.67;;
4051;SDS011;2040;50.924;11.604;2023-02-13T04:16:17;7.33;;;3.57;;
4051;SDS011;2040;50.924;11.604;2023-02-13T04:18:56;6.47;;;3.90;;
4051;SDS011;2040;50.924;11.604;2023-02-13T04:21:23;7.73;;;4.23;;
4051;SDS011;2040;50.924;11.604;2023-02-13T04:23:49;8.10;;;5.07;;
4051;SDS011;2040;50.924;11.604;2023-02-13T04:26:18;7.60;;;4.50;;
4051;SDS011;2040;50.924;11.604;2023-02-13T04:28:47;7.60;;;5.07;;
4051;SDS011;2040;50.924;11.604;2023-02-13T04:31:12;13.57;;;4.30;;
4051;SDS011;2040;50.924;11.604;2023-02-13T04:33:38;7.07;;;4.20;;
4051;SDS011;2040;50.924;11.604;2023-02-13T04:36:03;5.80;;;3.60;;
4051;SDS011;2040;50.924;11.604;2023-02-13T04:38:29;8.53;;;4.67;;
4051;SDS011;2040;50.924;11.604;2023-02-13T04:40:55;6.80;;;4.03;;
4051;SDS011;2040;50.924;11.604;2023-02-13T04:43:20;6.10;;;3.93;;
4051;SDS011;2040;50.924;11.604;2023-02-13T04:45:47;7.27;;;3.60;;
4051;SDS011;2040;50.924;11.604;2023-02-13T04:48:14;5.90;;;3.90;;
4051;SDS011;2040;50.924;11.604;2023-02-13T04:50:39;6.53;;;4.10;;
4051;SDS011;2040;50.924;11.604;2023-02-13T04:53:05;7.47;;;4.20;;
4051;SDS011;2040;50.924;11.604;2023-02-13T04:55:31;6.50;;;3.87;;
4051;SDS011;2040;50.924;11.604;2023-02-13T04:57:56;8.47;;;4.33;;
4051;SDS011;2040;50.924;11.604;2023-02-13T05:00:23;6.13;;;4.20;;
4051;SDS011;2040;50.924;11.604;2023-02-13T05:02:50;5.43;;;3.80;;
4051;SDS011;2040;50.924;11.604;2023-02-13T05:05:16;9.33;;;4.70;;
4051;SDS011;2040;50.924;11.604;2023-02-13T05:07:42;8.10;;;4.50;;
4051;SDS011;2040;50.924;11.604;2023-02-13T05:10:08;6.27;;;3.43;;
4051;SDS011;2040;50.924;11.604;2023-02-13T05:12:35;5.97;;;3.70;;
4051;SDS011;2040;50.924;11.604;2023-02-13T05:15:00;6.27;;;4.00;;
4051;SDS011;2040;50.924;11.604;2023-02-13T05:17:26;3.73;;;2.60;;
4051;SDS011;2040;50.924;11.604;2023-02-13T05:19:51;5.80;;;3.40;;
4051;SDS011;2040;50.924;11.604;2023-02-13T05:22:17;6.67;;;3.73;;
4051;SDS011;2040;50.924;11.604;2023-02-13T05:25:01;6.07;;;4.00;;
4051;SDS011;2040;50.924;11.604;2023-02-13T05:27:27;5.53;;;3.43;;
4051;SDS011;2040;50.924;11.604;2023-02-13T05:29:52;7.47;;;3.73;;
4051;SDS011;2040;50.924;11.604;2023-02-13T05:32:18;5.93;;;3.27;;
4051;SDS011;2040;50.924;11.604;2023-02-13T05:34:44;5.20;;;3.00;;
4051;SDS011;2040;50.924;11.604;2023-02-13T05:37:09;4.23;;;2.80;;
4051;SDS011;2040;50.924;11.604;2023-02-13T05:39:35;5.50;;;2.90;;
4051;SDS011;2040;50.924;11.604;2023-02-13T05:42:00;4.30;;;3.20;;
4051;SDS011;2040;50.924;11.604;2023-02-13T05:44:28;5.10;;;3.13;;
4051;SDS011;2040;50.924;11.604;2023-02-13T05:46:55;4.53;;;3.20;;
4051;SDS011;2040;50.924;11.604;2023-02-13T05:49:21;8.00;;;3.70;;
4051;SDS011;2040;50.924;11.604;2023-02-13T05:51:47;4.80;;;3.33;;
4051;SDS011;2040;50.924;11.604;2023-02-13T05:54:15;5.87;;;3.43;;
4051;SDS011;2040;50.924;11.604;2023-02-13T05:56:42;6.33;;;3.37;;
4051;SDS011;2040;50.924;11.604;2023-02-13T05:59:07;4.00;;;3.07;;
4051;SDS011;2040;50.924;11.604;2023-02-13T06:01:33;4.57;;;2.80;;
4051;SDS011;2040;50.924;11.604;2023-02-13T06:03:59;5.63;;;3.23;;
4051;SDS011;2040;50.924;11.604;2023-02-13T06:06:25;5.53;;;3.23;;
4051;SDS011;2040;50.924;11.604;2023-02-13T06:08:50;5.50;;;3.20;;
4051;SDS011;2040;50.924;11.604;2023-02-13T06:11:16;6.03;;;3.63;;
4051;SDS011;2040;50.924;11.604;2023-02-13T06:13:41;5.77;;;3.90;;
4051;SDS011;2040;50.924;11.604;2023-02-13T06:16:08;7.00;;;3.77;;
4051;SDS011;2040;50.924;11.604;2023-02-13T06:18:34;7.30;;;4.23;;
4051;SDS011;2040;50.924;11.604;2023-02-13T06:21:00;5.37;;;3.60;;
4051;SDS011;2040;50.924;11.604;2023-02-13T06:23:26;6.37;;;3.90;;
4051;SDS011;2040;50.924;11.604;2023-02-13T06:25:52;5.83;;;3.93;;
4051;SDS011;2040;50.924;11.604;2023-02-13T06:28:18;7.33;;;3.70;;
4051;SDS011;2040;50.924;11.604;2023-02-13T06:30:43;10.00;;;4.73;;
4051;SDS011;2040;50.924;11.604;2023-02-13T06:33:09;6.70;;;4.07;;
4051;SDS011;2040;50.924;11.604;2023-02-13T06:35:34;6.37;;;3.70;;
4051;SDS011;2040;50.924;11.604;2023-02-13T06:38:00;8.00;;;4.47;;
4051;SDS011;2040;50.924;11.604;2023-02-13T06:40:25;6.93;;;3.70;;
4051;SDS011;2040;50.924;11.604;2023-02-13T06:42:51;7.27;;;4.00;;
4051;SDS011;2040;50.924;11.604;2023-02-13T06:45:16;7.00;;;4.13;;
4051;SDS011;2040;50.924;11.604;2023-02-13T06:47:43;8.27;;;4.30;;
4051;SDS011;2040;50.924;11.604;2023-02-13T06:50:10;7.57;;;4.53;;
4051;SDS011;2040;50.924;11.604;2023-02-13T06:52:36;7.10;;;3.80;;
4051;SDS011;2040;50.924;11.604;2023-02-13T06:55:02;5.70;;;3.83;;
4051;SDS011;2040;50.924;11.604;2023-02-13T06:57:29;8.77;;;4.07;;
4051;SDS011;2040;50.924;11.604;2023-02-13T06:59:57;5.93;;;3.67;;
4051;SDS011;2040;50.924;11.604;2023-02-13T07:02:23;6.57;;;3.70;;
4051;SDS011;2040;50.924;11.604;2023-02-13T07:04:49;7.90;;;4.30;;
4051;SDS011;2040;50.924;11.604;2023-02-13T07:07:14;7.27;;;4.83;;
4051;SDS011;2040;50.924;11.604;2023-02-13T07:09:40;5.10;;;3.30;;
4051;SDS011;2040;50.924;11.604;2023-02-13T07:12:05;5.70;;;3.80;;
4051;SDS011;2040;50.924;11.604;2023-02-13T07:14:31;5.00;;;3.07;;
4051;SDS011;2040;50.924;11.604;2023-02-13T07:16:57;5.77;;;3.23;;
4051;SDS011;2040;50.924;11.604;2023-02-13T07:19:22;5.77;;;4.00;;
4051;SDS011;2040;50.924;11.604;2023-02-13T07:21:48;4.50;;;2.77;;
4051;SDS011;2040;50.924;11.604;2023-02-13T07:24:14;4.40;;;2.87;;
4051;SDS011;2040;50.924;11.604;2023-02-13T07:26:40;5.30;;;3.37;;
4051;SDS011;2040;50.924;11.604;2023-02-13T07:29:05;4.53;;;3.30;;
4051;SDS011;2040;50.924;11.604;2023-02-13T07:31:34;5.20;;;2.73;;
4051;SDS011;2040;50.924;11.604;2023-02-13T07:34:00;5.60;;;2.80;;
4051;SDS011;2040;50.924;11.604;2023-02-13T07:36:26;3.90;;;2.97;;
4051;SDS011;2040;50.924;11.604;2023-02-13T07:38:52;7.60;;;4.03;;
4051;SDS011;2040;50.924;11.604;2023-02-13T07:41:18;5.20;;;2.73;;
4051;SDS011;2040;50.924;11.604;2023-02-13T07:43:44;5.10;;;3.50;;
4051;SDS011;2040;50.924;11.604;2023-02-13T07:46:09;7.23;;;3.50;;
4051;SDS011;2040;50.924;11.604;2023-02-13T07:48:35;4.23;;;2.77;;
4051;SDS011;2040;50.924;11.604;2023-02-13T07:51:01;10.53;;;4.27;;
4051;SDS011;2040;50.924;11.604;2023-02-13T07:53:29;6.13;;;3.83;;
4051;SDS011;2040;50.924;11.604;2023-02-13T07:55:55;7.43;;;3.60;;
4051;SDS011;2040;50.924;11.604;2023-02-13T07:58:20;6.70;;;3.73;;
4051;SDS011;2040;50.924;11.604;2023-02-13T08:00:46;5.00;;;3.00;;
4051;SDS011;2040;50.924;11.604;2023-02-13T08:03:12;5.33;;;2.90;;
4051;SDS011;2040;50.924;11.604;2023-02-13T08:05:38;7.43;;;3.90;;
4051;SDS011;2040;50.924;11.604;2023-02-13T08:08:04;6.00;;;3.07;;
4051;SDS011;2040;50.924;11.604;2023-02-13T08:10:30;5.77;;;3.60;;
4051;SDS011;2040;50.924;11.604;2023-02-13T08:13:15;7.93;;;3.60;;
4051;SDS011;2040;50.924;11.604;2023-02-13T08:15:41;5.60;;;3.07;;
4051;SDS011;2040;50.924;11.604;2023-02-13T08:18:08;8.23;;;2.90;;
4051;SDS011;2040;50.924;11.604;2023-02-13T08:20:35;6.40;;;3.17;;
4051;SDS011;2040;50.924;11.604;2023-02-13T08:23:01;4.10;;;2.33;;
4051;SDS011;2040;50.924;11.604;2023-02-13T08:25:28;5.00;;;2.67;;
4051;SDS011;2040;50.924;11.604;2023-02-13T08:27:53;3.37;;;2.30;;
4051;SDS011;2040;50.924;11.604;2023-02-13T08:30:19;3.90;;;2.70;;
4051;SDS011;2040;50.924;11.604;2023-02-13T08:32:45;5.03;;;2.97;;
4051;SDS011;2040;50.924;11.604;2023-02-13T08:35:10;4.20;;;1.93;;
4051;SDS011;2040;50.924;11.604;2023-02-13T08:37:36;3.50;;;2.53;;
4051;SDS011;2040;50.924;11.604;2023-02-13T08:40:02;3.67;;;2.00;;
4051;SDS011;2040;50.924;11.604;2023-02-13T08:42:28;4.63;;;2.87;;
4051;SDS011;2040;50.924;11.604;2023-02-13T08:44:53;4.90;;;2.43;;
4051;SDS011;2040;50.924;11.604;2023-02-13T08:47:19;3.70;;;2.87;;
4051;SDS011;2040;50.924;11.604;2023-02-13T08:49:44;5.57;;;2.13;;
4051;SDS011;2040;50.924;11.604;2023-02-13T08:52:10;5.10;;;3.07;;
4051;SDS011;2040;50.924;11.604;2023-02-13T08:54:35;4.87;;;2.67;;
4051;SDS011;2040;50.924;11.604;2023-02-13T08:57:01;5.60;;;2.40;;
4051;SDS011;2040;50.924;11.604;2023-02-13T08:59:27;4.37;;;2.33;;
4051;SDS011;2040;50.924;11.604;2023-02-13T09:01:52;5.33;;;2.80;;
4051;SDS011;2040;50.924;11.604;2023-02-13T09:04:18;3.17;;;2.50;;
4051;SDS011;2040;50.924;11.604;2023-02-13T09:06:43;4.60;;;2.30;;
4051;SDS011;2040;50.924;11.604;2023-02-13T09:09:09;3.77;;;2.30;;
4051;SDS011;2040;50.924;11.604;2023-02-13T09:11:35;11.50;;;2.80;;
4051;SDS011;2040;50.924;11.604;2023-02-13T09:14:02;7.30;;;2.00;;
4051;SDS011;2040;50.924;11.604;2023-02-13T09:16:28;2.90;;;2.03;;
4051;SDS011;2040;50.924;11.604;2023-02-13T09:18:53;3.77;;;2.50;;
4051;SDS011;2040;50.924;11.604;2023-02-13T09:21:20;4.10;;;2.50;;
4051;SDS011;2040;50.924;11.604;2023-02-13T09:23:49;5.13;;;2.70;;
4051;SDS011;2040;50.924;11.604;2023-02-13T09:26:16;7.37;;;3.00;;
4051;SDS011;2040;50.924;11.604;2023-02-13T09:28:43;6.17;;;2.73;;
4051;SDS011;2040;50.924;11.604;2023-02-13T09:31:10;4.27;;;2.53;;
4051;SDS011;2040;50.924;11.604;2023-02-13T09:33:39;5.47;;;2.60;;
4051;SDS011;2040;50.924;11.604;2023-02-13T09:36:05;9.13;;;2.80;;
4051;SDS011;2040;50.924;11.604;2023-02-13T09:38:31;3.97;;;2.50;;
4051;SDS011;2040;50.924;11.604;2023-02-13T09:41:01;3.80;;;2.57;;
4051;SDS011;2040;50.924;11.604;2023-02-13T09:43:43;3.77;;;2.20;;
4051;SDS011;2040;50.924;11.604;2023-02-13T09:46:14;5.57;;;3.03;;
4051;SDS011;2040;50.924;11.604;2023-02-13T09:48:43;4.13;;;2.17;;
4051;SDS011;2040;50.924;11.604;2023-02-13T09:51:15;8.70;;;4.30;;
4051;SDS011;2040;50.924;11.604;2023-02-13T09:53:45;4.13;;;2.87;;
4051;SDS011;2040;50.924;11.604;2023-02-13T09:57:00;4.57;;;3.10;;
4051;SDS011;2040;50.924;11.604;2023-02-13T09:59:41;3.00;;;1.90;;
4051;SDS011;2040;50.924;11.604;2023-02-13T10:04:56;3.80;;;2.50;;
4051;SDS011;2040;50.924;11.604;2023-02-13T10:15:36;3.30;;;2.63;;
4051;SDS011;2040;50.924;11.604;2023-02-13T10:18:24;3.07;;;2.43;;
4051;SDS011;2040;50.924;11.604;2023-02-13T10:20:58;3.97;;;2.57;;
4051;SDS011;2040;50.924;11.604;2023-02-13T10:26:11;4.53;;;2.50;;
4051;SDS011;2040;50.924;11.604;2023-02-13T10:28:43;3.60;;;2.30;;
4051;SDS011;2040;50.924;11.604;2023-02-13T10:31:37;3.67;;;2.43;;
4051;SDS011;2040;50.924;11.604;2023-02-13T10:34:04;3.77;;;2.90;;
4051;SDS011;2040;50.924;11.604;2023-02-13T10:36:36;4.70;;;2.77;;
4051;SDS011;2040;50.924;11.604;2023-02-13T10:39:23;3.60;;;2.57;;
4051;SDS011;2040;50.924;11.604;2023-02-13T10:44:30;3.13;;;2.43;;
4051;SDS011;2040;50.924;11.604;2023-02-13T10:49:47;4.13;;;2.20;;
4051;SDS011;2040;50.924;11.604;2023-02-13T10:54:53;5.67;;;3.37;;
4051;SDS011;2040;50.924;11.604;2023-02-13T11:00:35;5.07;;;2.80;;
4051;SDS011;2040;50.924;11.604;2023-02-13T11:03:27;4.17;;;2.50;;
4051;SDS011;2040;50.924;11.604;2023-02-13T11:05:54;4.80;;;3.27;;
4051;SDS011;2040;50.924;11.604;2023-02-13T11:08:25;5.63;;;3.63;;
4051;SDS011;2040;50.924;11.604;2023-02-13T11:10:54;4.73;;;2.70;;
4051;SDS011;2040;50.924;11.604;2023-02-13T11:13:20;6.87;;;3.37;;
4051;SDS011;2040;50.924;11.604;2023-02-13T11:18:38;5.53;;;2.87;;
4051;SDS011;2040;50.924;11.604;2023-02-13T11:23:42;4.67;;;3.37;;
4051;SDS011;2040;50.924;11.604;2023-02-13T11:26:30;5.00;;;3.47;;
4051;SDS011;2040;50.924;11.604;2023-02-13T11:28:59;4.23;;;3.20;;
4051;SDS011;2040;50.924;11.604;2023-02-13T11:31:30;5.30;;;2.93;;
4051;SDS011;2040;50.924;11.604;2023-02-13T11:36:45;4.60;;;2.93;;
4051;SDS011;2040;50.924;11.604;2023-02-13T11:39:34;6.17;;;3.20;;
4051;SDS011;2040;50.924;11.604;2023-02-13T11:41:59;4.50;;;3.17;;
4051;SDS011;2040;50.924;11.604;2023-02-13T11:44:29;5.60;;;3.67;;
4051;SDS011;2040;50.924;11.604;2023-02-13T11:46:57;9.30;;;6.10;;
4051;SDS011;2040;50.924;11.604;2023-02-13T11:49:24;3.87;;;2.87;;
4051;SDS011;2040;50.924;11.604;2023-02-13T11:51:56;4.13;;;3.03;;
4051;SDS011;2040;50.924;11.604;2023-02-13T11:54:37;2.47;;;2.20;;
4051;SDS011;2040;50.924;11.604;2023-02-13T11:57:16;6.13;;;2.80;;
4051;SDS011;2040;50.924;11.604;2023-02-13T11:59:49;7.03;;;4.30;;
4051;SDS011;2040;50.924;11.604;2023-02-13T12:02:20;4.90;;;2.97;;
4051;SDS011;2040;50.924;11.604;2023-02-13T12:04:54;3.93;;;3.10;;
4051;SDS011;2040;50.924;11.604;2023-02-13T12:07:43;4.43;;;3.30;;
4051;SDS011;2040;50.924;11.604;2023-02-13T12:10:21;6.57;;;4.00;;
4051;SDS011;2040;50.924;11.604;2023-02-13T12:13:03;6.77;;;3.57;;
4051;SDS011;2040;50.924;11.604;2023-02-13T12:15:34;7.20;;;3.20;;
4051;SDS011;2040;50.924;11.604;2023-02-13T12:23:29;5.37;;;3.43;;
4051;SDS011;2040;50.924;11.604;2023-02-13T12:28:51;3.50;;;2.80;;
4051;SDS011;2040;50.924;11.604;2023-02-13T12:42:36;3.97;;;2.30;;
4051;SDS011;2040;50.924;11.604;2023-02-13T12:45:46;4.07;;;3.00;;
4051;SDS011;2040;50.924;11.604;2023-02-13T12:48:35;3.30;;;2.70;;
4051;SDS011;2040;50.924;11.604;2023-02-13T13:08:33;3.73;;;2.40;;
4051;SDS011;2040;50.924;11.604;2023-02-13T13:14:11;5.20;;;3.07;;
4051;SDS011;2040;50.924;11.604;2023-02-13T13:17:01;3.00;;;2.60;;
4051;SDS011;2040;50.924;11.604;2023-02-13T13:25:56;5.03;;;2.40;;
4051;SDS011;2040;50.924;11.604;2023-02-13T13:28:32;5.87;;;2.90;;
4051;SDS011;2040;50.924;11.604;2023-02-13T13:31:01;5.90;;;2.17;;
4051;SDS011;2040;50.924;11.604;2023-02-13T13:33:27;3.40;;;2.03;;
4051;SDS011;2040;50.924;11.604;2023-02-13T13:50:20;5.40;;;2.90;;
4051;SDS011;2040;50.924;11.604;2023-02-13T13:58:22;4.40;;;2.97;;
4051;SDS011;2040;50.924;11.604;2023-02-13T14:01:14;4.93;;;3.10;;
4051;SDS011;2040;50.924;11.604;2023-02-13T14:03:52;2.90;;;2.43;;
4051;SDS011;2040;50.924;11.604;2023-02-13T14:11:51;2.83;;;2.53;;
4051;SDS011;2040;50.924;11.604;2023-02-13T14:14:50;8.20;;;2.90;;
4051;SDS011;2040;50.924;11.604;2023-02-13T14:17:11;4.17;;;3.20;;
4051;SDS011;2040;50.924;11.604;2023-02-13T14:19:39;2.50;;;2.30;;
4051;SDS011;2040;50.924;11.604;2023-02-13T14:25:03;6.60;;;2.93;;
4051;SDS011;2040;50.924;11.604;2023-02-13T14:27:31;3.53;;;2.60;;
4051;SDS011;2040;50.924;11.604;2023-02-13T14:29:58;4.70;;;2.80;;
4051;SDS011;2040;50.924;11.604;2023-02-13T14:32:31;4.30;;;3.20;;
4051;SDS011;2040;50.924;11.604;2023-02-13T14:35:15;3.53;;;2.57;;
4051;SDS011;2040;50.924;11.604;2023-02-13T14:37:51;5.17;;;2.73;;
4051;SDS011;2040;50.924;11.604;2023-02-13T14:42:48;4.13;;;2.63;;
4051;SDS011;2040;50.924;11.604;2023-02-13T14:45:18;3.50;;;2.90;;
4051;SDS011;2040;50.924;11.604;2023-02-13T14:47:48;3.57;;;2.33;;
4051;SDS011;2040;50.924;11.604;2023-02-13T14:50:22;11.50;;;3.33;;
4051;SDS011;2040;50.924;11.604;2023-02-13T14:52:51;7.07;;;2.50;;
4051;SDS011;2040;50.924;11.604;2023-02-13T14:55:39;3.40;;;2.67;;
4051;SDS011;2040;50.924;11.604;2023-02-13T14:58:19;5.67;;;2.80;;
4051;SDS011;2040;50.924;11.604;2023-02-13T15:00:51;3.13;;;2.80;;
4051;SDS011;2040;50.924;11.604;2023-02-13T15:03:27;4.03;;;2.70;;
4051;SDS011;2040;50.924;11.604;2023-02-13T15:05:53;2.90;;;2.27;;
4051;SDS011;2040;50.924;11.604;2023-02-13T15:08:24;3.37;;;2.40;;
4051;SDS011;2040;50.924;11.604;2023-02-13T15:11:04;3.23;;;2.67;;
4051;SDS011;2040;50.924;11.604;2023-02-13T15:13:49;3.83;;;2.53;;
4051;SDS011;2040;50.924;11.604;2023-02-13T15:16:15;4.13;;;2.50;;
4051;SDS011;2040;50.924;11.604;2023-02-13T15:18:43;5.10;;;2.97;;
4051;SDS011;2040;50.924;11.604;2023-02-13T15:21:14;4.73;;;2.80;;
4051;SDS011;2040;50.924;11.604;2023-02-13T15:23:42;3.70;;;2.60;;
4051;SDS011;2040;50.924;11.604;2023-02-13T15:26:08;3.77;;;2.50;;
4051;SDS011;2040;50.924;11.604;2023-02-13T15:29:01;3.40;;;2.40;;
4051;SDS011;2040;50.924;11.604;2023-02-13T15:31:30;4.10;;;3.30;;
4051;SDS011;2040;50.924;11.604;2023-02-13T15:33:57;4.27;;;2.97;;
4051;SDS011;2040;50.924;11.604;2023-02-13T15:36:24;6.10;;;2.90;;
4051;SDS011;2040;50.924;11.604;2023-02-13T15:38:57;3.63;;;2.30;;
4051;SDS011;2040;50.924;11.604;2023-02-13T15:41:32;5.60;;;2.93;;
4051;SDS011;2040;50.924;11.604;2023-02-13T15:44:02;5.63;;;3.63;;
4051;SDS011;2040;50.924;11.604;2023-02-13T15:46:29;4.47;;;3.03;;
4051;SDS011;2040;50.924;11.604;2023-02-13T15:49:00;3.10;;;2.30;;
4051;SDS011;2040;50.924;11.604;2023-02-13T15:51:31;3.57;;;2.57;;
4051;SDS011;2040;50.924;11.604;2023-02-13T15:56:29;4.73;;;2.57;;
4051;SDS011;2040;50.924;11.604;2023-02-13T15:58:55;7.00;;;4.00;;
4051;SDS011;2040;50.924;11.604;2023-02-13T16:01:22;16.60;;;8.17;;
4051;SDS011;2040;50.924;11.604;2023-02-13T16:03:49;7.57;;;4.77;;
4051;SDS011;2040;50.924;11.604;2023-02-13T16:06:20;8.30;;;5.03;;
4051;SDS011;2040;50.924;11.604;2023-02-13T16:08:55;13.57;;;6.80;;
4051;SDS011;2040;50.924;11.604;2023-02-13T16:11:37;12.20;;;6.37;;
4051;SDS011;2040;50.924;11.604;2023-02-13T16:16:55;19.70;;;8.00;;
4051;SDS011;2040;50.924;11.604;2023-02-13T16:19:34;18.97;;;10.10;;
4051;SDS011;2040;50.924;11.604;2023-02-13T16:22:32;21.80;;;11.13;;
4051;SDS011;2040;50.924;11.604;2023-02-13T16:27:56;12.97;;;5.93;;
4051;SDS011;2040;50.924;11.604;2023-02-13T16:30:26;12.07;;;7.30;;
4051;SDS011;2040;50.924;11.604;2023-02-13T16:35:43;13.17;;;7.57;;
4051;SDS011;2040;50.924;11.604;2023-02-13T16:41:03;8.50;;;5.03;;
4051;SDS011;2040;50.924;11.604;2023-02-13T16:43:34;8.00;;;4.30;;
4051;SDS011;2040;50.924;11.604;2023-02-13T16:48:49;8.27;;;4.63;;
4051;SDS011;2040;50.924;11.604;2023-02-13T16:56:57;9.10;;;4.90;;
4051;SDS011;2040;50.924;11.604;2023-02-13T17:02:16;8.40;;;4.93;;
4051;SDS011;2040;50.924;11.604;2023-02-13T17:04:43;8.80;;;5.20;;
4051;SDS011;2040;50.924;11.604;2023-02-13T17:07:11;11.00;;;5.80;;
4051;SDS011;2040;50.924;11.604;2023-02-13T17:09:41;8.00;;;4.80;;
4051;SDS011;2040;50.924;11.604;2023-02-13T17:12:10;9.83;;;6.73;;
4051;SDS011;2040;50.924;11.604;2023-02-13T17:14:38;9.03;;;5.57;;
4051;SDS011;2040;50.924;11.604;2023-02-13T17:17:08;11.10;;;5.73;;
4051;SDS011;2040;50.924;11.604;2023-02-13T17:19:35;9.27;;;5.77;;
4051;SDS011;2040;50.924;11.604;2023-02-13T17:22:01;14.97;;;7.40;;
4051;SDS011;2040;50.924;11.604;2023-02-13T17:24:27;14.50;;;7.77;;
4051;SDS011;2040;50.924;11.604;2023-02-13T17:26:53;22.63;;;9.40;;
4051;SDS011;2040;50.924;11.604;2023-02-13T17:29:19;19.90;;;10.07;;
4051;SDS011;2040;50.924;11.604;2023-02-13T17:31:44;25.40;;;11.00;;
4051;SDS011;2040;50.924;11.604;2023-02-13T17:34:10;36.30;;;15.57;;
4051;SDS011;2040;50.924;11.604;2023-02-13T17:36:36;22.33;;;11.07;;
4051;SDS011;2040;50.924;11.604;2023-02-13T17:39:02;16.17;;;8.77;;
4051;SDS011;2040;50.924;11.604;2023-02-13T17:41:27;18.97;;;9.93;;
4051;SDS011;2040;50.924;11.604;2023-02-13T17:43:53;16.43;;;10.27;;
4051;SDS011;2040;50.924;11.604;2023-02-13T17:46:19;18.37;;;10.37;;
4051;SDS011;2040;50.924;11.604;2023-02-13T17:48:44;17.10;;;8.43;;
4051;SDS011;2040;50.924;11.604;2023-02-13T17:51:13;15.13;;;9.50;;
4051;SDS011;2040;50.924;11.604;2023-02-13T17:53:39;14.57;;;8.40;;
4051;SDS011;2040;50.924;11.604;2023-02-13T17:56:04;14.97;;;8.40;;
4051;SDS011;2040;50.924;11.604;2023-02-13T17:58:30;15.30;;;8.40;;
4051;SDS011;2040;50.924;11.604;2023-02-13T18:00:55;15.80;;;8.80;;
4051;SDS011;2040;50.924;11.604;2023-02-13T18:03:21;16.57;;;8.40;;
4051;SDS011;2040;50.924;11.604;2023-02-13T18:05:47;16.60;;;7.97;;
4051;SDS011;2040;50.924;11.604;2023-02-13T18:08:13;13.70;;;8.60;;
4051;SDS011;2040;50.924;11.604;2023-02-13T18:10:39;13.03;;;8.20;;
4051;SDS011;2040;50.924;11.604;2023-02-13T18:13:04;18.43;;;9.17;;